sensor_id;sensor_type;location;lat;lon;timestamp;P1;durP1;ratioP1;P2;durP2;ratioP2
16450;SDS011;12243;42.708;23.310;2023-07-13T00:01:03;8.18;;;6.32;;
16450;SDS011;12243;42.708;23.310;2023-07-13T00:03:31;7.30;;;6.22;;
16450;SDS011;12243;42.708;23.310;2023-07-13T00:06:01;6.03;;;5.53;;
16450;SDS011;12243;42.708;23.310;2023-07-13T00:08:30;8.48;;;5.93;;
16450;SDS011;12243;42.708;23.310;2023-07-13T00:10:58;6.20;;;5.60;;
16450;SDS011;12243;42.708;23.310;2023-07-13T00:13:25;6.35;;;5.63;;
16450;SDS011;12243;42.708;23.310;2023-07-13T00:15:51;6.50;;;5.40;;
16450;SDS011;12243;42.708;23.310;2023-07-13T00:18:19;6.22;;;5.72;;
16450;SDS011;12243;42.708;23.310;2023-07-13T00:20:46;6.43;;;5.80;;
16450;SDS011;12243;42.708;23.310;2023-07-13T00:23:15;7.63;;;5.70;;
16450;SDS011;12243;42.708;23.310;2023-07-13T00:25:42;6.55;;;5.22;;
16450;SDS011;12243;42.708;23.310;2023-07-13T00:28:09;6.22;;;5.72;;
16450;SDS011;12243;42.708;23.310;2023-07-13T00:30:36;6.75;;;5.80;;
16450;SDS011;12243;42.708;23.310;2023-07-13T00:33:02;6.20;;;5.60;;
16450;SDS011;12243;42.708;23.310;2023-07-13T00:35:30;7.65;;;5.85;;
16450;SDS011;12243;42.708;23.310;2023-07-13T00:37:57;6.53;;;5.88;;
16450;SDS011;12243;42.708;23.310;2023-07-13T00:40:25;6.25;;;5.35;;
16450;SDS011;12243;42.708;23.310;2023-07-13T00:42:52;5.97;;;5.30;;
16450;SDS011;12243;42.708;23.310;2023-07-13T00:48:20;5.88;;;5.30;;
16450;SDS011;12243;42.708;23.310;2023-07-13T00:50:52;8.68;;;6.03;;
16450;SDS011;12243;42.708;23.310;2023-07-13T00:53:21;6.40;;;5.80;;
16450;SDS011;12243;42.708;23.310;2023-07-13T00:55:50;6.20;;;5.70;;
16450;SDS011;12243;42.708;23.310;2023-07-13T00:58:18;6.57;;;6.07;;
16450;SDS011;12243;42.708;23.310;2023-07-13T01:00:46;7.30;;;6.68;;
16450;SDS011;12243;42.708;23.310;2023-07-13T01:03:16;6.40;;;5.90;;
16450;SDS011;12243;42.708;23.310;2023-07-13T01:05:42;7.35;;;6.18;;
16450;SDS011;12243;42.708;23.310;2023-07-13T01:08:09;6.90;;;6.15;;
16450;SDS011;12243;42.708;23.310;2023-07-13T01:10:36;6.80;;;6.20;;
16450;SDS011;12243;42.708;23.310;2023-07-13T01:13:06;7.05;;;6.35;;
16450;SDS011;12243;42.708;23.310;2023-07-13T01:15:35;7.68;;;6.97;;
16450;SDS011;12243;42.708;23.310;2023-07-13T01:18:03;7.20;;;6.50;;
16450;SDS011;12243;42.708;23.310;2023-07-13T01:20:31;7.28;;;6.55;;
16450;SDS011;12243;42.708;23.310;2023-07-13T01:23:04;6.90;;;6.30;;
16450;SDS011;12243;42.708;23.310;2023-07-13T01:25:33;7.75;;;6.60;;
16450;SDS011;12243;42.708;23.310;2023-07-13T01:28:02;7.00;;;6.40;;
16450;SDS011;12243;42.708;23.310;2023-07-13T01:30:30;7.63;;;6.93;;
16450;SDS011;12243;42.708;23.310;2023-07-13T01:32:57;6.80;;;6.30;;
16450;SDS011;12243;42.708;23.310;2023-07-13T01:35:25;7.35;;;6.65;;
16450;SDS011;12243;42.708;23.310;2023-07-13T01:37:52;8.35;;;7.15;;
16450;SDS011;12243;42.708;23.310;2023-07-13T01:40:20;6.75;;;6.15;;
16450;SDS011;12243;42.708;23.310;2023-07-13T01:42:47;7.20;;;6.60;;
16450;SDS011;12243;42.708;23.310;2023-07-13T01:45:14;11.77;;;6.78;;
16450;SDS011;12243;42.708;23.310;2023-07-13T01:47:42;7.25;;;6.63;;
16450;SDS011;12243;42.708;23.310;2023-07-13T01:50:09;7.20;;;6.60;;
16450;SDS011;12243;42.708;23.310;2023-07-13T01:52:36;7.80;;;6.10;;
16450;SDS011;12243;42.708;23.310;2023-07-13T01:55:03;7.85;;;6.35;;
16450;SDS011;12243;42.708;23.310;2023-07-13T01:57:34;7.28;;;6.57;;
16450;SDS011;12243;42.708;23.310;2023-07-13T02:00:02;6.70;;;6.10;;
16450;SDS011;12243;42.708;23.310;2023-07-13T02:02:40;7.10;;;6.47;;
16450;SDS011;12243;42.708;23.310;2023-07-13T02:05:09;7.47;;;6.72;;
16450;SDS011;12243;42.708;23.310;2023-07-13T02:07:36;6.75;;;6.18;;
16450;SDS011;12243;42.708;23.310;2023-07-13T02:10:03;7.55;;;6.55;;
16450;SDS011;12243;42.708;23.310;2023-07-13T02:12:30;7.10;;;6.40;;
16450;SDS011;12243;42.708;23.310;2023-07-13T02:14:59;8.50;;;6.07;;
16450;SDS011;12243;42.708;23.310;2023-07-13T02:17:26;7.03;;;5.47;;
16450;SDS011;12243;42.708;23.310;2023-07-13T02:19:53;6.32;;;5.82;;
16450;SDS011;12243;42.708;23.310;2023-07-13T02:22:20;10.00;;;6.55;;
16450;SDS011;12243;42.708;23.310;2023-07-13T02:24:48;6.75;;;6.22;;
16450;SDS011;12243;42.708;23.310;2023-07-13T02:27:17;6.30;;;5.90;;
16450;SDS011;12243;42.708;23.310;2023-07-13T02:29:44;6.88;;;6.18;;
16450;SDS011;12243;42.708;23.310;2023-07-13T02:32:12;6.22;;;5.72;;
16450;SDS011;12243;42.708;23.310;2023-07-13T02:34:40;6.03;;;5.63;;
16450;SDS011;12243;42.708;23.310;2023-07-13T02:37:08;5.88;;;5.30;;
16450;SDS011;12243;42.708;23.310;2023-07-13T02:39:35;6.40;;;5.78;;
16450;SDS011;12243;42.708;23.310;2023-07-13T02:42:02;6.18;;;5.75;;
16450;SDS011;12243;42.708;23.310;2023-07-13T02:44:30;6.35;;;5.75;;
16450;SDS011;12243;42.708;23.310;2023-07-13T02:46:57;6.25;;;5.75;;
16450;SDS011;12243;42.708;23.310;2023-07-13T02:49:25;7.38;;;6.60;;
16450;SDS011;12243;42.708;23.310;2023-07-13T02:51:52;7.07;;;6.38;;
16450;SDS011;12243;42.708;23.310;2023-07-13T02:54:19;7.35;;;6.60;;
16450;SDS011;12243;42.708;23.310;2023-07-13T02:56:45;7.78;;;6.97;;
16450;SDS011;12243;42.708;23.310;2023-07-13T02:59:13;7.22;;;6.53;;
16450;SDS011;12243;42.708;23.310;2023-07-13T03:01:39;6.38;;;5.78;;
16450;SDS011;12243;42.708;23.310;2023-07-13T03:04:06;7.22;;;6.57;;
16450;SDS011;12243;42.708;23.310;2023-07-13T03:06:35;7.78;;;6.97;;
16450;SDS011;12243;42.708;23.310;2023-07-13T03:09:03;7.20;;;6.55;;
16450;SDS011;12243;42.708;23.310;2023-07-13T03:11:32;8.02;;;6.78;;
16450;SDS011;12243;42.708;23.310;2023-07-13T03:14:11;7.50;;;6.82;;
16450;SDS011;12243;42.708;23.310;2023-07-13T03:16:39;7.43;;;6.60;;
16450;SDS011;12243;42.708;23.310;2023-07-13T03:19:06;6.90;;;6.25;;
16450;SDS011;12243;42.708;23.310;2023-07-13T03:21:33;7.75;;;6.75;;
16450;SDS011;12243;42.708;23.310;2023-07-13T03:24:02;7.40;;;6.80;;
16450;SDS011;12243;42.708;23.310;2023-07-13T03:26:29;8.48;;;6.45;;
16450;SDS011;12243;42.708;23.310;2023-07-13T03:28:56;9.23;;;6.57;;
16450;SDS011;12243;42.708;23.310;2023-07-13T03:31:25;7.05;;;6.35;;
16450;SDS011;12243;42.708;23.310;2023-07-13T03:33:54;6.85;;;6.22;;
16450;SDS011;12243;42.708;23.310;2023-07-13T03:36:22;10.50;;;6.90;;
16450;SDS011;12243;42.708;23.310;2023-07-13T03:38:54;7.57;;;6.88;;
16450;SDS011;12243;42.708;23.310;2023-07-13T03:41:27;7.30;;;6.60;;
16450;SDS011;12243;42.708;23.310;2023-07-13T03:43:54;7.00;;;6.30;;
16450;SDS011;12243;42.708;23.310;2023-07-13T03:46:23;8.25;;;6.53;;
16450;SDS011;12243;42.708;23.310;2023-07-13T03:48:50;8.70;;;6.40;;
16450;SDS011;12243;42.708;23.310;2023-07-13T03:51:17;8.88;;;6.70;;
16450;SDS011;12243;42.708;23.310;2023-07-13T03:53:45;7.20;;;6.35;;
16450;SDS011;12243;42.708;23.310;2023-07-13T03:56:14;9.25;;;6.35;;
16450;SDS011;12243;42.708;23.310;2023-07-13T03:58:45;7.13;;;5.78;;
16450;SDS011;12243;42.708;23.310;2023-07-13T04:01:16;6.88;;;6.18;;
16450;SDS011;12243;42.708;23.310;2023-07-13T04:03:45;7.50;;;6.80;;
16450;SDS011;12243;42.708;23.310;2023-07-13T04:06:14;7.47;;;6.75;;
16450;SDS011;12243;42.708;23.310;2023-07-13T04:08:47;9.57;;;6.50;;
16450;SDS011;12243;42.708;23.310;2023-07-13T04:11:15;7.53;;;6.78;;
16450;SDS011;12243;42.708;23.310;2023-07-13T04:13:43;7.43;;;6.45;;
16450;SDS011;12243;42.708;23.310;2023-07-13T04:16:11;6.70;;;6.18;;
16450;SDS011;12243;42.708;23.310;2023-07-13T04:18:38;7.70;;;6.60;;
16450;SDS011;12243;42.708;23.310;2023-07-13T04:21:05;9.85;;;6.63;;
16450;SDS011;12243;42.708;23.310;2023-07-13T04:23:31;7.10;;;6.10;;
16450;SDS011;12243;42.708;23.310;2023-07-13T04:25:58;8.43;;;5.80;;
16450;SDS011;12243;42.708;23.310;2023-07-13T04:28:25;9.73;;;7.30;;
16450;SDS011;12243;42.708;23.310;2023-07-13T04:30:53;10.43;;;6.95;;
16450;SDS011;12243;42.708;23.310;2023-07-13T04:33:20;7.93;;;6.63;;
16450;SDS011;12243;42.708;23.310;2023-07-13T04:35:48;8.82;;;6.80;;
16450;SDS011;12243;42.708;23.310;2023-07-13T04:38:21;7.25;;;6.55;;
16450;SDS011;12243;42.708;23.310;2023-07-13T04:40:49;9.30;;;6.88;;
16450;SDS011;12243;42.708;23.310;2023-07-13T04:43:17;7.90;;;7.20;;
16450;SDS011;12243;42.708;23.310;2023-07-13T04:45:44;8.35;;;7.00;;
16450;SDS011;12243;42.708;23.310;2023-07-13T04:48:12;7.57;;;6.82;;
16450;SDS011;12243;42.708;23.310;2023-07-13T04:50:39;9.27;;;7.03;;
16450;SDS011;12243;42.708;23.310;2023-07-13T04:53:06;10.63;;;7.30;;
16450;SDS011;12243;42.708;23.310;2023-07-13T04:55:33;8.70;;;6.70;;
16450;SDS011;12243;42.708;23.310;2023-07-13T04:58:00;8.05;;;6.70;;
16450;SDS011;12243;42.708;23.310;2023-07-13T05:00:27;8.55;;;6.43;;
16450;SDS011;12243;42.708;23.310;2023-07-13T05:02:56;7.75;;;7.05;;
16450;SDS011;12243;42.708;23.310;2023-07-13T05:05:25;11.57;;;8.45;;
16450;SDS011;12243;42.708;23.310;2023-07-13T05:07:53;13.00;;;7.60;;
16450;SDS011;12243;42.708;23.310;2023-07-13T05:10:20;10.93;;;7.97;;
16450;SDS011;12243;42.708;23.310;2023-07-13T05:12:47;8.60;;;7.78;;
16450;SDS011;12243;42.708;23.310;2023-07-13T05:15:14;8.82;;;7.88;;
16450;SDS011;12243;42.708;23.310;2023-07-13T05:17:41;10.07;;;8.57;;
16450;SDS011;12243;42.708;23.310;2023-07-13T05:20:08;8.48;;;7.70;;
16450;SDS011;12243;42.708;23.310;2023-07-13T05:22:37;10.68;;;8.05;;
16450;SDS011;12243;42.708;23.310;2023-07-13T05:25:04;7.78;;;7.18;;
16450;SDS011;12243;42.708;23.310;2023-07-13T05:27:32;9.75;;;8.30;;
16450;SDS011;12243;42.708;23.310;2023-07-13T05:29:59;8.35;;;7.55;;
16450;SDS011;12243;42.708;23.310;2023-07-13T05:32:26;8.90;;;7.57;;
16450;SDS011;12243;42.708;23.310;2023-07-13T05:34:53;10.02;;;6.72;;
16450;SDS011;12243;42.708;23.310;2023-07-13T05:37:20;10.98;;;7.32;;
16450;SDS011;12243;42.708;23.310;2023-07-13T05:39:49;8.13;;;7.30;;
16450;SDS011;12243;42.708;23.310;2023-07-13T05:42:15;9.57;;;7.68;;
16450;SDS011;12243;42.708;23.310;2023-07-13T05:44:42;9.00;;;8.20;;
16450;SDS011;12243;42.708;23.310;2023-07-13T05:47:09;11.77;;;8.15;;
16450;SDS011;12243;42.708;23.310;2023-07-13T05:49:36;8.65;;;7.68;;
16450;SDS011;12243;42.708;23.310;2023-07-13T05:52:03;8.40;;;7.60;;
16450;SDS011;12243;42.708;23.310;2023-07-13T05:54:30;9.18;;;8.30;;
16450;SDS011;12243;42.708;23.310;2023-07-13T05:56:58;8.50;;;7.47;;
16450;SDS011;12243;42.708;23.310;2023-07-13T05:59:25;8.27;;;7.28;;
16450;SDS011;12243;42.708;23.310;2023-07-13T06:01:52;8.95;;;8.05;;
16450;SDS011;12243;42.708;23.310;2023-07-13T06:04:19;10.68;;;7.55;;
16450;SDS011;12243;42.708;23.310;2023-07-13T06:06:46;8.73;;;7.65;;
16450;SDS011;12243;42.708;23.310;2023-07-13T06:09:13;8.73;;;7.65;;
16450;SDS011;12243;42.708;23.310;2023-07-13T06:11:40;10.50;;;7.15;;
16450;SDS011;12243;42.708;23.310;2023-07-13T06:14:08;9.38;;;7.82;;
16450;SDS011;12243;42.708;23.310;2023-07-13T06:16:35;9.27;;;8.45;;
16450;SDS011;12243;42.708;23.310;2023-07-13T06:19:02;9.43;;;7.80;;
16450;SDS011;12243;42.708;23.310;2023-07-13T06:21:29;12.60;;;8.70;;
16450;SDS011;12243;42.708;23.310;2023-07-13T06:23:55;14.02;;;8.60;;
16450;SDS011;12243;42.708;23.310;2023-07-13T06:26:22;9.27;;;7.70;;
16450;SDS011;12243;42.708;23.310;2023-07-13T06:28:49;11.95;;;8.25;;
16450;SDS011;12243;42.708;23.310;2023-07-13T06:31:17;13.20;;;7.97;;
16450;SDS011;12243;42.708;23.310;2023-07-13T06:33:44;8.18;;;7.38;;
16450;SDS011;12243;42.708;23.310;2023-07-13T06:36:11;9.13;;;8.23;;
16450;SDS011;12243;42.708;23.310;2023-07-13T06:38:38;8.90;;;7.82;;
16450;SDS011;12243;42.708;23.310;2023-07-13T06:41:05;9.50;;;7.22;;
16450;SDS011;12243;42.708;23.310;2023-07-13T06:43:32;8.77;;;6.75;;
16450;SDS011;12243;42.708;23.310;2023-07-13T06:45:59;10.23;;;7.28;;
16450;SDS011;12243;42.708;23.310;2023-07-13T06:48:28;9.15;;;8.10;;
16450;SDS011;12243;42.708;23.310;2023-07-13T06:50:55;8.07;;;7.35;;
16450;SDS011;12243;42.708;23.310;2023-07-13T06:53:22;8.60;;;7.35;;
16450;SDS011;12243;42.708;23.310;2023-07-13T06:55:49;8.82;;;7.15;;
16450;SDS011;12243;42.708;23.310;2023-07-13T06:58:17;9.90;;;8.02;;
16450;SDS011;12243;42.708;23.310;2023-07-13T07:00:44;10.10;;;7.97;;
16450;SDS011;12243;42.708;23.310;2023-07-13T07:03:11;9.25;;;8.13;;
16450;SDS011;12243;42.708;23.310;2023-07-13T07:05:40;9.27;;;8.27;;
16450;SDS011;12243;42.708;23.310;2023-07-13T07:08:07;7.28;;;6.65;;
16450;SDS011;12243;42.708;23.310;2023-07-13T07:10:34;13.27;;;7.63;;
16450;SDS011;12243;42.708;23.310;2023-07-13T07:13:02;8.80;;;8.05;;
16450;SDS011;12243;42.708;23.310;2023-07-13T07:15:29;9.00;;;7.18;;
16450;SDS011;12243;42.708;23.310;2023-07-13T07:17:57;11.82;;;8.98;;
16450;SDS011;12243;42.708;23.310;2023-07-13T07:20:24;8.90;;;7.97;;
16450;SDS011;12243;42.708;23.310;2023-07-13T07:22:53;11.98;;;8.18;;
16450;SDS011;12243;42.708;23.310;2023-07-13T07:25:20;9.20;;;8.00;;
16450;SDS011;12243;42.708;23.310;2023-07-13T07:27:46;10.63;;;8.15;;
16450;SDS011;12243;42.708;23.310;2023-07-13T07:30:13;15.38;;;8.68;;
16450;SDS011;12243;42.708;23.310;2023-07-13T07:32:40;9.30;;;8.30;;
16450;SDS011;12243;42.708;23.310;2023-07-13T07:35:08;10.68;;;8.05;;
16450;SDS011;12243;42.708;23.310;2023-07-13T07:37:35;8.93;;;7.97;;
16450;SDS011;12243;42.708;23.310;2023-07-13T07:40:04;12.00;;;8.88;;
16450;SDS011;12243;42.708;23.310;2023-07-13T07:42:32;9.40;;;7.97;;
16450;SDS011;12243;42.708;23.310;2023-07-13T07:44:59;9.48;;;8.48;;
16450;SDS011;12243;42.708;23.310;2023-07-13T07:47:27;12.02;;;8.60;;
16450;SDS011;12243;42.708;23.310;2023-07-13T07:49:53;10.90;;;9.32;;
16450;SDS011;12243;42.708;23.310;2023-07-13T07:52:20;9.38;;;8.48;;
16450;SDS011;12243;42.708;23.310;2023-07-13T07:54:47;9.43;;;8.45;;
16450;SDS011;12243;42.708;23.310;2023-07-13T07:57:15;9.70;;;8.10;;
16450;SDS011;12243;42.708;23.310;2023-07-13T07:59:42;10.00;;;8.77;;
16450;SDS011;12243;42.708;23.310;2023-07-13T08:02:09;9.73;;;8.68;;
16450;SDS011;12243;42.708;23.310;2023-07-13T08:04:36;12.20;;;9.52;;
16450;SDS011;12243;42.708;23.310;2023-07-13T08:07:03;9.98;;;8.98;;
16450;SDS011;12243;42.708;23.310;2023-07-13T08:09:31;9.98;;;8.60;;
16450;SDS011;12243;42.708;23.310;2023-07-13T08:11:58;12.82;;;8.40;;
16450;SDS011;12243;42.708;23.310;2023-07-13T08:14:26;12.52;;;8.60;;
16450;SDS011;12243;42.708;23.310;2023-07-13T08:16:53;10.13;;;8.98;;
16450;SDS011;12243;42.708;23.310;2023-07-13T08:19:20;11.18;;;8.43;;
16450;SDS011;12243;42.708;23.310;2023-07-13T08:21:47;11.32;;;8.52;;
16450;SDS011;12243;42.708;23.310;2023-07-13T08:24:14;13.15;;;8.52;;
16450;SDS011;12243;42.708;23.310;2023-07-13T08:26:43;11.07;;;8.63;;
16450;SDS011;12243;42.708;23.310;2023-07-13T08:29:11;8.75;;;7.88;;
16450;SDS011;12243;42.708;23.310;2023-07-13T08:31:39;9.45;;;8.40;;
16450;SDS011;12243;42.708;23.310;2023-07-13T08:34:06;11.43;;;8.57;;
16450;SDS011;12243;42.708;23.310;2023-07-13T08:36:33;9.07;;;7.82;;
16450;SDS011;12243;42.708;23.310;2023-07-13T08:39:00;9.32;;;8.52;;
16450;SDS011;12243;42.708;23.310;2023-07-13T08:41:27;10.25;;;8.68;;
16450;SDS011;12243;42.708;23.310;2023-07-13T08:43:56;10.55;;;7.75;;
16450;SDS011;12243;42.708;23.310;2023-07-13T08:46:27;8.38;;;7.40;;
16450;SDS011;12243;42.708;23.310;2023-07-13T08:49:01;8.15;;;7.28;;
16450;SDS011;12243;42.708;23.310;2023-07-13T08:51:34;8.52;;;7.75;;
16450;SDS011;12243;42.708;23.310;2023-07-13T08:54:11;8.77;;;8.07;;
16450;SDS011;12243;42.708;23.310;2023-07-13T08:56:44;11.82;;;8.38;;
16450;SDS011;12243;42.708;23.310;2023-07-13T08:59:14;9.38;;;8.45;;
16450;SDS011;12243;42.708;23.310;2023-07-13T09:01:47;13.88;;;8.18;;
16450;SDS011;12243;42.708;23.310;2023-07-13T09:04:27;10.30;;;7.57;;
16450;SDS011;12243;42.708;23.310;2023-07-13T09:07:01;9.57;;;8.65;;
16450;SDS011;12243;42.708;23.310;2023-07-13T09:09:40;11.38;;;8.20;;
16450;SDS011;12243;42.708;23.310;2023-07-13T09:12:20;10.68;;;9.63;;
16450;SDS011;12243;42.708;23.310;2023-07-13T09:14:53;10.90;;;9.82;;
16450;SDS011;12243;42.708;23.310;2023-07-13T09:17:23;13.93;;;9.00;;
16450;SDS011;12243;42.708;23.310;2023-07-13T09:19:54;11.57;;;10.38;;
16450;SDS011;12243;42.708;23.310;2023-07-13T09:22:26;9.80;;;8.93;;
16450;SDS011;12243;42.708;23.310;2023-07-13T09:24:57;10.55;;;9.52;;
16450;SDS011;12243;42.708;23.310;2023-07-13T09:27:29;14.63;;;9.63;;
16450;SDS011;12243;42.708;23.310;2023-07-13T09:30:04;11.38;;;8.88;;
16450;SDS011;12243;42.708;23.310;2023-07-13T09:32:49;10.52;;;9.45;;
16450;SDS011;12243;42.708;23.310;2023-07-13T09:35:20;11.23;;;8.88;;
16450;SDS011;12243;42.708;23.310;2023-07-13T09:37:56;10.75;;;8.55;;
16450;SDS011;12243;42.708;23.310;2023-07-13T09:40:28;12.57;;;9.27;;
16450;SDS011;12243;42.708;23.310;2023-07-13T09:43:01;10.85;;;9.05;;
16450;SDS011;12243;42.708;23.310;2023-07-13T09:45:30;15.82;;;8.77;;
16450;SDS011;12243;42.708;23.310;2023-07-13T09:48:03;9.57;;;8.45;;
16450;SDS011;12243;42.708;23.310;2023-07-13T09:50:32;9.00;;;8.00;;
16450;SDS011;12243;42.708;23.310;2023-07-13T09:53:00;11.52;;;8.13;;
16450;SDS011;12243;42.708;23.310;2023-07-13T09:55:29;16.20;;;8.60;;
16450;SDS011;12243;42.708;23.310;2023-07-13T09:58:02;11.30;;;7.03;;
16450;SDS011;12243;42.708;23.310;2023-07-13T10:00:31;9.77;;;7.63;;
16450;SDS011;12243;42.708;23.310;2023-07-13T10:02:59;7.75;;;6.53;;
16450;SDS011;12243;42.708;23.310;2023-07-13T10:05:28;8.30;;;7.53;;
16450;SDS011;12243;42.708;23.310;2023-07-13T10:08:05;11.98;;;7.50;;
16450;SDS011;12243;42.708;23.310;2023-07-13T10:10:33;6.28;;;5.78;;
16450;SDS011;12243;42.708;23.310;2023-07-13T10:13:01;5.45;;;5.05;;
16450;SDS011;12243;42.708;23.310;2023-07-13T10:15:30;6.82;;;5.28;;
16450;SDS011;12243;42.708;23.310;2023-07-13T10:17:57;7.65;;;5.63;;
16450;SDS011;12243;42.708;23.310;2023-07-13T10:20:24;8.25;;;4.80;;
16450;SDS011;12243;42.708;23.310;2023-07-13T10:22:56;11.20;;;5.07;;
16450;SDS011;12243;42.708;23.310;2023-07-13T10:25:27;6.20;;;5.18;;
16450;SDS011;12243;42.708;23.310;2023-07-13T10:28:00;5.13;;;4.65;;
16450;SDS011;12243;42.708;23.310;2023-07-13T10:30:32;5.75;;;4.97;;
16450;SDS011;12243;42.708;23.310;2023-07-13T10:33:08;6.53;;;5.95;;
16450;SDS011;12243;42.708;23.310;2023-07-13T10:35:38;6.72;;;4.80;;
16450;SDS011;12243;42.708;23.310;2023-07-13T10:38:11;5.65;;;4.95;;
16450;SDS011;12243;42.708;23.310;2023-07-13T10:40:44;5.88;;;5.38;;
16450;SDS011;12243;42.708;23.310;2023-07-13T10:43:22;5.70;;;5.22;;
16450;SDS011;12243;42.708;23.310;2023-07-13T10:45:52;6.68;;;4.90;;
16450;SDS011;12243;42.708;23.310;2023-07-13T10:48:20;5.40;;;4.97;;
16450;SDS011;12243;42.708;23.310;2023-07-13T10:50:50;6.32;;;4.72;;
16450;SDS011;12243;42.708;23.310;2023-07-13T10:53:21;5.72;;;4.72;;
16450;SDS011;12243;42.708;23.310;2023-07-13T10:55:55;5.85;;;4.68;;
16450;SDS011;12243;42.708;23.310;2023-07-13T10:58:28;4.85;;;4.40;;
16450;SDS011;12243;42.708;23.310;2023-07-13T11:01:03;4.53;;;4.22;;
16450;SDS011;12243;42.708;23.310;2023-07-13T11:03:35;4.95;;;4.53;;
16450;SDS011;12243;42.708;23.310;2023-07-13T11:06:05;6.13;;;4.20;;
16450;SDS011;12243;42.708;23.310;2023-07-13T11:08:37;5.18;;;4.68;;
16450;SDS011;12243;42.708;23.310;2023-07-13T11:14:04;5.43;;;4.82;;
16450;SDS011;12243;42.708;23.310;2023-07-13T11:16:51;5.43;;;4.93;;
16450;SDS011;12243;42.708;23.310;2023-07-13T11:19:25;5.32;;;4.60;;
16450;SDS011;12243;42.708;23.310;2023-07-13T11:22:16;4.95;;;4.55;;
16450;SDS011;12243;42.708;23.310;2023-07-13T11:24:50;5.32;;;4.78;;
16450;SDS011;12243;42.708;23.310;2023-07-13T11:27:25;6.68;;;5.18;;
16450;SDS011;12243;42.708;23.310;2023-07-13T11:30:19;8.43;;;5.43;;
16450;SDS011;12243;42.708;23.310;2023-07-13T11:32:50;6.82;;;5.82;;
16450;SDS011;12243;42.708;23.310;2023-07-13T11:35:31;5.95;;;5.45;;
16450;SDS011;12243;42.708;23.310;2023-07-13T11:38:01;6.03;;;4.95;;
16450;SDS011;12243;42.708;23.310;2023-07-13T11:40:30;5.38;;;4.82;;
16450;SDS011;12243;42.708;23.310;2023-07-13T11:43:00;5.20;;;4.70;;
16450;SDS011;12243;42.708;23.310;2023-07-13T11:45:27;6.60;;;5.57;;
16450;SDS011;12243;42.708;23.310;2023-07-13T11:47:54;7.25;;;5.18;;
16450;SDS011;12243;42.708;23.310;2023-07-13T11:50:25;5.40;;;5.00;;
16450;SDS011;12243;42.708;23.310;2023-07-13T11:52:52;8.50;;;5.57;;
16450;SDS011;12243;42.708;23.310;2023-07-13T11:55:21;8.30;;;5.15;;
16450;SDS011;12243;42.708;23.310;2023-07-13T11:57:53;8.23;;;5.72;;
16450;SDS011;12243;42.708;23.310;2023-07-13T12:00:25;6.20;;;5.55;;
16450;SDS011;12243;42.708;23.310;2023-07-13T12:02:55;6.78;;;5.80;;
16450;SDS011;12243;42.708;23.310;2023-07-13T12:05:24;6.15;;;5.38;;
16450;SDS011;12243;42.708;23.310;2023-07-13T12:07:51;5.90;;;5.22;;
16450;SDS011;12243;42.708;23.310;2023-07-13T12:10:20;5.53;;;5.00;;
16450;SDS011;12243;42.708;23.310;2023-07-13T12:12:50;9.48;;;5.97;;
16450;SDS011;12243;42.708;23.310;2023-07-13T12:15:20;6.47;;;5.97;;
16450;SDS011;12243;42.708;23.310;2023-07-13T12:17:48;6.00;;;5.50;;
16450;SDS011;12243;42.708;23.310;2023-07-13T12:20:20;6.45;;;5.78;;
16450;SDS011;12243;42.708;23.310;2023-07-13T12:22:50;5.47;;;5.07;;
16450;SDS011;12243;42.708;23.310;2023-07-13T12:25:18;6.60;;;5.80;;
16450;SDS011;12243;42.708;23.310;2023-07-13T12:27:46;6.32;;;4.53;;
16450;SDS011;12243;42.708;23.310;2023-07-13T12:30:23;10.38;;;5.30;;
16450;SDS011;12243;42.708;23.310;2023-07-13T12:32:57;6.03;;;4.82;;
16450;SDS011;12243;42.708;23.310;2023-07-13T12:35:27;6.20;;;5.30;;
16450;SDS011;12243;42.708;23.310;2023-07-13T12:38:00;9.30;;;4.85;;
16450;SDS011;12243;42.708;23.310;2023-07-13T12:40:33;6.38;;;5.10;;
16450;SDS011;12243;42.708;23.310;2023-07-13T12:43:02;5.05;;;4.47;;
16450;SDS011;12243;42.708;23.310;2023-07-13T12:45:33;5.65;;;5.15;;
16450;SDS011;12243;42.708;23.310;2023-07-13T12:48:03;8.00;;;5.30;;
16450;SDS011;12243;42.708;23.310;2023-07-13T12:50:36;6.97;;;5.22;;
16450;SDS011;12243;42.708;23.310;2023-07-13T12:53:10;6.00;;;5.40;;
16450;SDS011;12243;42.708;23.310;2023-07-13T12:55:41;11.65;;;5.30;;
16450;SDS011;12243;42.708;23.310;2023-07-13T12:58:13;10.25;;;5.22;;
16450;SDS011;12243;42.708;23.310;2023-07-13T13:00:49;9.05;;;6.20;;
16450;SDS011;12243;42.708;23.310;2023-07-13T13:03:21;6.57;;;5.68;;
16450;SDS011;12243;42.708;23.310;2023-07-13T13:05:59;6.95;;;5.50;;
16450;SDS011;12243;42.708;23.310;2023-07-13T13:08:28;6.05;;;4.88;;
16450;SDS011;12243;42.708;23.310;2023-07-13T13:10:55;6.53;;;5.15;;
16450;SDS011;12243;42.708;23.310;2023-07-13T13:13:22;9.18;;;5.75;;
16450;SDS011;12243;42.708;23.310;2023-07-13T13:15:51;5.65;;;4.65;;
16450;SDS011;12243;42.708;23.310;2023-07-13T13:18:19;6.55;;;5.47;;
16450;SDS011;12243;42.708;23.310;2023-07-13T13:20:48;8.02;;;5.68;;
16450;SDS011;12243;42.708;23.310;2023-07-13T13:23:17;9.00;;;5.55;;
16450;SDS011;12243;42.708;23.310;2023-07-13T13:25:45;7.40;;;5.15;;
16450;SDS011;12243;42.708;23.310;2023-07-13T13:28:13;5.70;;;5.20;;
16450;SDS011;12243;42.708;23.310;2023-07-13T13:30:43;5.97;;;5.20;;
16450;SDS011;12243;42.708;23.310;2023-07-13T13:33:13;6.72;;;4.78;;
16450;SDS011;12243;42.708;23.310;2023-07-13T13:35:42;8.68;;;5.22;;
16450;SDS011;12243;42.708;23.310;2023-07-13T13:38:10;5.40;;;4.93;;
16450;SDS011;12243;42.708;23.310;2023-07-13T13:40:39;7.05;;;5.68;;
16450;SDS011;12243;42.708;23.310;2023-07-13T13:43:14;6.90;;;5.18;;
16450;SDS011;12243;42.708;23.310;2023-07-13T13:45:43;5.28;;;4.80;;
16450;SDS011;12243;42.708;23.310;2023-07-13T13:48:16;4.97;;;4.57;;
16450;SDS011;12243;42.708;23.310;2023-07-13T13:50:45;7.53;;;5.20;;
16450;SDS011;12243;42.708;23.310;2023-07-13T13:53:13;5.35;;;4.55;;
16450;SDS011;12243;42.708;23.310;2023-07-13T13:55:40;11.77;;;5.00;;
16450;SDS011;12243;42.708;23.310;2023-07-13T13:58:07;5.22;;;4.72;;
16450;SDS011;12243;42.708;23.310;2023-07-13T14:00:35;4.57;;;4.28;;
16450;SDS011;12243;42.708;23.310;2023-07-13T14:03:02;6.55;;;4.70;;
16450;SDS011;12243;42.708;23.310;2023-07-13T14:05:33;5.40;;;4.90;;
16450;SDS011;12243;42.708;23.310;2023-07-13T14:08:00;9.63;;;5.20;;
16450;SDS011;12243;42.708;23.310;2023-07-13T14:10:27;6.57;;;5.30;;
16450;SDS011;12243;42.708;23.310;2023-07-13T14:12:54;6.53;;;4.57;;
16450;SDS011;12243;42.708;23.310;2023-07-13T14:15:24;8.45;;;5.78;;
16450;SDS011;12243;42.708;23.310;2023-07-13T14:17:52;8.00;;;5.03;;
16450;SDS011;12243;42.708;23.310;2023-07-13T14:20:20;11.18;;;5.38;;
16450;SDS011;12243;42.708;23.310;2023-07-13T14:22:51;6.32;;;4.90;;
16450;SDS011;12243;42.708;23.310;2023-07-13T14:25:20;8.73;;;4.55;;
16450;SDS011;12243;42.708;23.310;2023-07-13T14:27:48;6.88;;;4.75;;
16450;SDS011;12243;42.708;23.310;2023-07-13T14:30:19;8.65;;;4.88;;
16450;SDS011;12243;42.708;23.310;2023-07-13T14:32:47;5.18;;;4.68;;
16450;SDS011;12243;42.708;23.310;2023-07-13T14:35:16;6.47;;;5.13;;
16450;SDS011;12243;42.708;23.310;2023-07-13T14:37:45;9.90;;;5.22;;
16450;SDS011;12243;42.708;23.310;2023-07-13T14:40:15;5.82;;;5.30;;
16450;SDS011;12243;42.708;23.310;2023-07-13T14:42:43;7.38;;;5.38;;
16450;SDS011;12243;42.708;23.310;2023-07-13T14:45:13;6.28;;;5.15;;
16450;SDS011;12243;42.708;23.310;2023-07-13T14:47:41;6.07;;;5.43;;